Time;durP1;ratioP1;P1;durP2;ratioP2;P2;SDS_P1;SDS_P2;PMS_P1;PMS_P2;Temp;Humidity;BMP_temperature;BMP_pressure;BME280_temperature;BME280_humidity;BME280_pressure;Samples;Min_cycle;Max_cycle;Signal;HPM_P1;HPM_P2
2023/07/18 02:21:33;;;;;;;33.80;9.60;;;;;;;22.39;47.35;99264.27;80234;1302;3015891;-67
2023/07/18 02:24:00;;;;;;;28.80;9.70;;;;;;;22.47;47.16;99261.25;79196;1302;3013505;-66
2023/07/18 02:26:26;;;;;;;33.30;11.60;;;;;;;22.58;46.72;99259.45;79396;1298;3013518;-68
2023/07/18 02:28:55;;;;;;;31.50;10.40;;;;;;;22.69;46.65;99257.15;78305;1301;3052748;-67
2023/07/18 02:31:25;;;;;;;34.60;9.50;;;;;;;22.75;46.35;99255.95;79405;1301;3011527;-67
2023/07/18 02:33:52;;;;;;;31.00;9.40;;;;;;;22.76;46.11;99248.54;75684;1304;3027126;-68
2023/07/18 02:36:21;;;;;;;22.20;9.30;;;;;;;22.74;45.92;99246.85;79520;1298;3018487;-65
2023/07/18 02:38:51;;;;;;;40.30;13.60;;;;;;;22.71;46.08;99241.91;79241;1299;3013967;-65
2023/07/18 02:41:19;;;;;;;78.40;23.90;;;;;;;22.68;45.94;99242.29;79527;1295;3011654;-68
2023/07/18 02:43:46;;;;;;;164.50;36.60;;;;;;;22.66;46.07;99235.41;79373;1299;3013540;-67
2023/07/18 02:46:14;;;;;;;149.60;35.30;;;;;;;22.62;46.41;99240.11;78179;1301;3051894;-68
2023/07/18 02:48:41;;;;;;;129.20;32.10;;;;;;;22.58;46.57;99235.54;79569;1300;3013098;-66
2023/07/18 02:51:08;;;;;;;108.10;27.80;;;;;;;22.57;46.81;99233.89;79611;1301;3011639;-66
2023/07/18 02:53:37;;;;;;;80.20;21.40;;;;;;;22.55;46.83;99231.67;78326;1301;3049876;-66
2023/07/18 02:56:04;;;;;;;65.00;18.50;;;;;;;22.53;46.89;99231.67;79688;1300;3012869;-67
2023/07/18 02:58:31;;;;;;;27.40;10.00;;;;;;;22.52;47.35;99234.71;79560;1301;3011952;-70
2023/07/18 03:00:59;;;;;;;21.70;6.80;;;;;;;22.49;47.63;99232.55;78538;1300;3052802;-66
2023/07/18 03:03:30;;;;;;;28.30;8.40;;;;;;;22.45;48.08;99235.56;79655;1296;3013095;-67
2023/07/18 03:05:57;;;;;;;17.20;6.50;;;;;;;22.43;48.49;99233.85;78376;1296;3027056;-70
2023/07/18 03:08:25;;;;;;;24.20;7.40;;;;;;;22.42;48.23;99235.75;79600;1295;3013059;-65
2023/07/18 03:10:52;;;;;;;24.10;8.20;;;;;;;22.44;48.89;99235.05;79664;1298;3011671;-66
2023/07/18 03:13:20;;;;;;;14.10;6.60;;;;;;;22.43;49.28;99235.51;78282;1295;3051085;-64
2023/07/18 03:15:47;;;;;;;19.60;6.90;;;;;;;22.43;48.53;99242.23;79605;1299;3013192;-70
2023/07/18 03:18:14;;;;;;;13.50;5.90;;;;;;;22.41;49.22;99239.94;79625;1295;3011775;-65
2023/07/18 03:20:42;;;;;;;16.80;5.70;;;;;;;22.42;48.42;99243.08;78313;1298;3026579;-65
2023/07/18 03:23:10;;;;;;;21.90;6.10;;;;;;;22.41;48.34;99242.31;79673;1295;3013336;-64
2023/07/18 03:25:36;;;;;;;17.50;5.90;;;;;;;22.41;48.44;99245.30;79558;1295;3011584;-70
2023/07/18 03:28:04;;;;;;;13.60;5.90;;;;;;;22.42;48.49;99244.15;78300;1295;3049393;-69
2023/07/18 03:30:32;;;;;;;21.30;6.90;;;;;;;22.46;48.56;99242.09;79583;1298;3014474;-71
2023/07/18 03:32:59;;;;;;;24.70;9.50;;;;;;;22.51;49.26;99240.70;79794;1295;3013149;-68
2023/07/18 03:35:28;;;;;;;92.30;26.50;;;;;;;22.58;49.13;99237.38;78319;1300;3052449;-69
2023/07/18 03:37:56;;;;;;;66.20;21.70;;;;;;;22.62;48.95;99234.23;79555;1301;3011940;-65
2023/07/18 03:40:23;;;;;;;61.10;20.60;;;;;;;22.66;48.78;99236.81;79998;1296;3012782;-67
2023/07/18 03:42:51;;;;;;;53.40;18.40;;;;;;;22.66;48.81;99236.58;78364;1300;3052032;-70
2023/07/18 03:45:18;;;;;;;55.90;18.10;;;;;;;22.64;49.39;99236.30;79774;1298;3013249;-68
2023/07/18 03:47:45;;;;;;;50.60;16.00;;;;;;;22.65;49.64;99234.80;79675;1298;3011882;-68
2023/07/18 03:50:14;;;;;;;48.30;16.20;;;;;;;22.64;49.74;99233.42;78459;1295;3051308;-70
2023/07/18 03:52:41;;;;;;;44.30;14.60;;;;;;;22.67;50.11;99232.94;79640;1296;3013188;-69
2023/07/18 03:55:08;;;;;;;64.20;11.80;;;;;;;22.71;50.11;99231.96;79631;1298;3011567;-68
2023/07/18 03:57:36;;;;;;;22.80;8.80;;;;;;;22.74;50.40;99232.98;78682;1307;3049191;-70
2023/07/18 04:00:12;;;;;;;22.10;7.00;;;;;;;22.76;49.83;99234.38;79553;1302;3013090;-69
2023/07/18 04:02:44;;;;;;;27.70;6.30;;;;;;;22.82;49.74;99239.16;78274;1301;3069213;-67
2023/07/18 04:05:11;;;;;;;21.20;6.20;;;;;;;22.85;48.61;99238.98;79581;1295;3012718;-69
2023/07/18 04:07:40;;;;;;;13.80;5.00;;;;;;;22.88;48.18;99237.14;78327;1301;3026128;-69
2023/07/18 04:10:07;;;;;;;15.70;5.60;;;;;;;22.88;47.37;99234.92;79654;1296;3013327;-70
2023/07/18 04:12:34;;;;;;;16.60;5.50;;;;;;;22.92;47.95;99234.91;79518;1296;3011815;-67
2023/07/18 04:15:02;;;;;;;16.40;5.10;;;;;;;22.92;48.10;99230.99;78320;1300;3051768;-69
2023/07/18 04:17:30;;;;;;;11.50;5.40;;;;;;;22.90;47.81;99231.84;79631;1299;3015029;-69
2023/07/18 04:19:58;;;;;;;13.70;5.60;;;;;;;22.94;48.69;99232.54;79552;1295;3011317;-69
2023/07/18 04:22:26;;;;;;;16.40;5.60;;;;;;;23.00;48.94;99228.59;78516;1295;3057715;-70
2023/07/18 04:24:53;;;;;;;16.10;5.50;;;;;;;23.07;48.83;99225.67;79702;1296;3013778;-69
2023/07/18 04:27:20;;;;;;;13.10;5.60;;;;;;;23.10;49.19;99226.33;79580;1296;3011449;-70
2023/07/18 04:29:48;;;;;;;13.30;6.10;;;;;;;23.14;49.37;99230.41;78399;1298;3053586;-69
2023/07/18 04:32:17;;;;;;;26.50;10.50;;;;;;;23.08;49.70;99233.40;79624;1298;3013727;-68
2023/07/18 04:34:47;;;;;;;81.00;28.40;;;;;;;23.15;48.96;99231.20;78990;1301;3013273;-65
2023/07/18 04:37:13;;;;;;;71.50;23.40;;;;;;;23.22;49.28;99232.89;79505;1301;3012906;-70
2023/07/18 04:39:40;;;;;;;53.40;20.70;;;;;;;23.31;49.68;99232.20;79497;1298;3011566;-70
2023/07/18 04:42:08;;;;;;;49.20;16.60;;;;;;;23.37;49.60;99231.95;78340;1301;3028372;-68
2023/07/18 04:44:36;;;;;;;43.20;16.80;;;;;;;23.45;49.36;99233.17;79548;1300;3013614;-68
2023/07/18 04:47:03;;;;;;;37.80;15.30;;;;;;;23.52;49.43;99233.98;79523;1298;3013407;-68
2023/07/18 04:49:31;;;;;;;31.70;12.70;;;;;;;23.59;49.21;99229.52;78330;1296;3068938;-68
2023/07/18 04:51:58;;;;;;;29.20;12.00;;;;;;;23.68;49.07;99232.24;79661;1299;3013330;-65
2023/07/18 04:54:26;;;;;;;25.90;11.00;;;;;;;23.76;48.96;99229.89;79559;1295;3011764;-69
2023/07/18 04:56:54;;;;;;;31.50;9.40;;;;;;;23.84;48.63;99231.81;78287;1301;3052630;-69
2023/07/18 04:59:21;;;;;;;27.90;10.00;;;;;;;23.87;49.04;99231.94;79597;1298;3013959;-66
2023/07/18 05:01:53;;;;;;;26.60;10.30;;;;;;;23.96;48.72;99227.48;79595;1298;3011747;-70
2023/07/18 05:04:21;;;;;;;26.90;10.20;;;;;;;24.05;48.87;99226.09;78368;1300;3069611;-68
2023/07/18 05:06:51;;;;;;;31.90;10.50;;;;;;;24.08;48.59;99229.41;79615;1298;3012818;-70
2023/07/18 05:09:20;;;;;;;26.30;10.40;;;;;;;24.14;48.78;99229.23;78936;1298;3012987;-68
2023/07/18 05:11:47;;;;;;;29.70;10.70;;;;;;;24.20;48.95;99226.02;79559;1298;3020599;-69
2023/07/18 05:14:14;;;;;;;26.00;9.30;;;;;;;24.26;48.97;99222.07;79532;1296;3013748;-70
2023/07/18 05:16:42;;;;;;;27.80;9.80;;;;;;;24.33;49.02;99219.43;78420;1301;3029404;-68
2023/07/18 05:19:09;;;;;;;20.60;7.80;;;;;;;24.40;48.82;99221.65;79501;1298;3013044;-69
2023/07/18 05:21:36;;;;;;;23.10;8.50;;;;;;;24.45;48.70;99215.30;79532;1298;3011879;-67
2023/07/18 05:24:04;;;;;;;18.10;8.50;;;;;;;24.49;48.75;99211.66;78374;1298;3028131;-65
2023/07/18 05:26:31;;;;;;;27.10;9.10;;;;;;;24.54;48.57;99212.79;79618;1298;3013848;-70
2023/07/18 05:28:58;;;;;;;37.40;9.60;;;;;;;24.61;48.04;99209.73;79461;1295;3011942;-69
2023/07/18 05:31:26;;;;;;;24.70;9.30;;;;;;;24.67;47.97;99208.04;78317;1298;3053357;-69
2023/07/18 05:33:53;;;;;;;31.50;10.20;;;;;;;24.73;48.02;99208.14;79666;1300;3013572;-68
2023/07/18 05:36:19;;;;;;;29.60;9.40;;;;;;;24.76;48.07;99209.13;79508;1296;3011789;-68
2023/07/18 05:38:47;;;;;;;31.00;9.60;;;;;;;24.79;47.82;99204.16;78227;1298;3028821;-68
2023/07/18 05:41:16;;;;;;;21.90;9.10;;;;;;;24.83;47.47;99207.86;79533;1296;3018380;-69
2023/07/18 05:43:47;;;;;;;18.10;6.90;;;;;;;24.87;47.07;99204.77;78439;1301;3049742;-71
2023/07/18 05:46:14;;;;;;;23.90;7.70;;;;;;;24.95;46.40;99196.83;79562;1298;3013195;-66
2023/07/18 05:48:41;;;;;;;25.00;9.00;;;;;;;25.05;46.35;99196.61;79476;1302;3013665;-67
2023/07/18 05:51:09;;;;;;;25.40;9.70;;;;;;;25.13;46.27;99192.05;78424;1300;3027944;-70
2023/07/18 05:53:37;;;;;;;28.00;10.10;;;;;;;25.22;45.74;99185.95;79624;1300;3013139;-69
2023/07/18 05:56:04;;;;;;;38.70;11.40;;;;;;;25.30;45.65;99184.48;79551;1302;3012274;-71
2023/07/18 05:58:33;;;;;;;28.40;11.80;;;;;;;25.37;45.25;99188.20;78292;1298;3051635;-68
2023/07/18 06:01:00;;;;;;;35.90;12.10;;;;;;;25.40;44.87;99193.77;79627;1301;3013330;-68
2023/07/18 06:03:28;;;;;;;44.40;12.60;;;;;;;25.43;45.08;99194.17;79719;1301;3011786;-68
2023/07/18 06:05:56;;;;;;;55.00;14.40;;;;;;;25.50;44.76;99193.46;78612;1308;3049432;-70
2023/07/18 06:08:23;;;;;;;55.90;14.50;;;;;;;25.58;44.41;99191.00;79679;1295;3013250;-67
2023/07/18 06:10:56;;;;;;;57.00;14.60;;;;;;;25.65;44.52;99185.16;79458;1299;3011780;-67
2023/07/18 06:13:24;;;;;;;55.60;14.70;;;;;;;25.70;44.63;99191.67;78490;1301;3049672;-71
2023/07/18 06:15:51;;;;;;;28.40;9.00;;;;;;;25.77;44.61;99189.08;79719;1299;3018391;-65
2023/07/18 06:18:18;;;;;;;34.10;8.90;;;;;;;25.80;44.90;99192.15;79553;1301;3011619;-66
2023/07/18 06:20:46;;;;;;;21.10;8.30;;;;;;;25.87;44.31;99188.25;78242;1301;3028737;-69
2023/07/18 06:23:12;;;;;;;36.50;10.00;;;;;;;25.94;43.70;99184.89;79363;1296;3012871;-68
2023/07/18 06:25:39;;;;;;;37.10;11.10;;;;;;;26.02;43.55;99186.71;79428;1299;3011569;-66
2023/07/18 06:28:07;;;;;;;42.40;12.40;;;;;;;25.98;42.95;99183.71;78162;1301;3026659;-65
2023/07/18 06:30:34;;;;;;;32.20;9.80;;;;;;;26.07;42.72;99184.90;79694;1298;3020789;-68
2023/07/18 06:33:00;;;;;;;47.90;11.40;;;;;;;26.14;42.47;99181.73;79630;1300;3011803;-66
2023/07/18 06:35:29;;;;;;;24.70;9.20;;;;;;;26.13;42.82;99181.73;78343;1296;3028508;-68
2023/07/18 06:37:55;;;;;;;29.30;8.10;;;;;;;26.27;42.74;99177.30;79435;1301;3013760;-72
2023/07/18 06:40:22;;;;;;;25.60;11.00;;;;;;;26.35;43.00;99183.20;79478;1296;3011837;-68
2023/07/18 06:43:10;;;;;;;26.50;9.80;;;;;;;26.36;42.02;99181.27;78149;1301;3050240;-72
2023/07/18 06:45:38;;;;;;;18.40;6.40;;;;;;;26.44;42.81;99181.04;79504;1309;3014520;-71
2023/07/18 06:48:05;;;;;;;27.20;8.30;;;;;;;26.54;42.54;99182.59;79497;1302;3011610;-69
2023/07/18 06:50:33;;;;;;;19.40;8.60;;;;;;;26.57;43.34;99183.64;78354;1301;3051887;-71
2023/07/18 06:53:00;;;;;;;13.70;5.40;;;;;;;26.59;41.95;99180.82;79512;1298;3013580;-68
2023/07/18 06:55:26;;;;;;;11.00;4.60;;;;;;;26.63;41.87;99180.25;79670;1300;3011699;-71
2023/07/18 06:57:54;;;;;;;7.40;4.10;;;;;;;26.60;41.38;99174.41;78405;1300;3028817;-73
2023/07/18 07:00:21;;;;;;;13.40;5.30;;;;;;;26.60;39.97;99169.63;79559;1299;3018392;-71
2023/07/18 07:02:48;;;;;;;12.90;4.80;;;;;;;26.70;41.25;99170.88;79607;1308;3011860;-64
2023/07/18 07:05:17;;;;;;;13.10;4.30;;;;;;;26.80;41.78;99169.61;78365;1296;3051057;-69
2023/07/18 07:07:45;;;;;;;10.00;5.20;;;;;;;26.85;41.61;99162.32;79537;1295;3013804;-72
2023/07/18 07:10:15;;;;;;;17.40;5.30;;;;;;;26.91;42.15;99155.19;78361;1296;3054283;-69
2023/07/18 07:12:43;;;;;;;15.00;5.30;;;;;;;26.96;42.58;99157.63;79537;1301;3012994;-71
2023/07/18 07:15:10;;;;;;;20.20;5.60;;;;;;;27.03;42.05;99157.71;79611;1301;3011743;-70
2023/07/18 07:17:38;;;;;;;12.60;5.10;;;;;;;27.08;41.52;99152.70;78356;1298;3069406;-68
2023/07/18 07:20:06;;;;;;;8.20;4.30;;;;;;;27.15;41.19;99153.38;79538;1299;3013027;-75
2023/07/18 07:22:33;;;;;;;12.40;4.90;;;;;;;27.08;40.36;99157.58;79523;1296;3011676;-70
2023/07/18 07:25:01;;;;;;;18.00;5.30;;;;;;;27.10;40.07;99154.80;78249;1301;3053215;-72
2023/07/18 07:27:27;;;;;;;8.90;4.20;;;;;;;27.24;40.54;99148.23;79751;1301;3018818;-77
2023/07/18 07:29:54;;;;;;;7.20;4.10;;;;;;;27.29;40.65;99151.34;79675;1298;3011177;-70
2023/07/18 07:32:21;;;;;;;10.50;4.30;;;;;;;27.34;40.19;99152.16;78456;1299;3027005;-69
2023/07/18 07:34:51;;;;;;;11.90;4.70;;;;;;;27.37;40.55;99151.10;79626;1296;3013567;-70
2023/07/18 07:37:20;;;;;;;11.00;4.10;;;;;;;27.48;39.97;99147.59;78998;1295;3011971;-65
2023/07/18 07:39:46;;;;;;;10.70;4.60;;;;;;;27.57;39.86;99145.46;79646;1295;3012838;-70
2023/07/18 07:42:13;;;;;;;12.10;4.50;;;;;;;27.65;39.52;99145.84;79804;1296;3011836;-70
2023/07/18 07:44:41;;;;;;;7.70;4.10;;;;;;;27.66;39.57;99145.06;78355;1301;3025724;-70
2023/07/18 07:47:08;;;;;;;9.30;4.60;;;;;;;27.76;39.62;99145.40;79665;1300;3013130;-69
2023/07/18 07:49:35;;;;;;;9.40;4.80;;;;;;;27.89;39.69;99142.27;79514;1301;3012859;-71
2023/07/18 07:52:03;;;;;;;9.30;4.10;;;;;;;27.97;39.58;99146.02;78288;1301;3029917;-71
2023/07/18 07:54:29;;;;;;;6.10;3.30;;;;;;;28.03;38.51;99145.39;79560;1301;3013007;-69
2023/07/18 07:56:56;;;;;;;10.60;3.50;;;;;;;28.05;39.10;99145.39;79590;1301;3011446;-70
2023/07/18 07:59:24;;;;;;;5.40;3.50;;;;;;;28.10;38.05;99141.30;78234;1298;3029663;-69
2023/07/18 08:01:51;;;;;;;5.20;3.60;;;;;;;27.99;37.70;99140.00;79681;1298;3014909;-72
2023/07/18 08:04:17;;;;;;;6.30;3.20;;;;;;;28.08;37.98;99130.91;79582;1301;3012052;-67
2023/07/18 08:06:47;;;;;;;4.90;3.50;;;;;;;28.08;37.55;99133.38;78356;1300;3057373;-71
2023/07/18 08:09:13;;;;;;;5.20;3.20;;;;;;;28.16;37.62;99129.38;79560;1300;3013544;-71
2023/07/18 08:11:40;;;;;;;6.20;3.30;;;;;;;28.02;37.49;99133.84;79666;1296;3011627;-71
2023/07/18 08:14:08;;;;;;;9.90;3.90;;;;;;;28.11;37.72;99128.63;78225;1299;3025884;-71
2023/07/18 08:16:37;;;;;;;5.60;3.50;;;;;;;28.25;37.81;99123.02;79420;1298;3013387;-76
2023/07/18 08:19:03;;;;;;;9.60;3.90;;;;;;;28.24;36.55;99124.85;79535;1296;3011598;-70
2023/07/18 08:21:31;;;;;;;5.70;3.50;;;;;;;28.33;36.70;99123.56;78271;1301;3058265;-73
2023/07/18 08:23:58;;;;;;;9.50;3.90;;;;;;;28.50;36.92;99117.23;79579;1295;3013316;-75
2023/07/18 08:26:24;;;;;;;14.90;4.40;;;;;;;28.46;37.59;99117.57;79679;1301;3011976;-70
2023/07/18 08:28:52;;;;;;;8.70;3.90;;;;;;;28.52;37.53;99107.91;78552;1299;3026533;-74
2023/07/18 08:31:19;;;;;;;9.00;3.50;;;;;;;28.63;36.82;99104.85;79757;1295;3019056;-73
2023/07/18 08:33:46;;;;;;;8.90;3.40;;;;;;;28.78;36.32;99101.79;79523;1301;3011696;-68
2023/07/18 08:36:13;;;;;;;5.80;2.80;;;;;;;28.95;35.77;99103.40;78393;1295;3025080;-74
2023/07/18 08:38:43;;;;;;;7.60;3.40;;;;;;;28.88;33.64;99103.01;79501;1295;3018404;-72
2023/07/18 08:41:12;;;;;;;11.20;3.00;;;;;;;29.04;34.57;99095.28;79152;1295;3011565;-74
2023/07/18 08:43:39;;;;;;;3.50;2.70;;;;;;;29.01;34.39;99097.69;79610;1298;3011516;-74
2023/07/18 08:46:05;;;;;;;8.10;3.40;;;;;;;28.97;34.22;99098.42;79545;1298;3013615;-74
2023/07/18 08:48:33;;;;;;;8.80;3.80;;;;;;;29.15;34.89;99096.38;78238;1296;3069344;-70
2023/07/18 08:51:00;;;;;;;4.30;3.00;;;;;;;29.35;35.36;99091.00;79580;1295;3013032;-72
2023/07/18 08:53:26;;;;;;;8.10;3.30;;;;;;;29.44;34.72;99100.73;79553;1300;3012945;-76
2023/07/18 08:55:54;;;;;;;6.90;3.60;;;;;;;29.53;34.75;99103.70;78220;1301;3028376;-70
2023/07/18 08:58:22;;;;;;;7.90;3.00;;;;;;;29.68;34.50;99093.52;79527;1307;3013356;-71
2023/07/18 09:00:48;;;;;;;11.10;3.60;;;;;;;29.78;34.49;99098.39;79410;1301;3011647;-74
2023/07/18 09:03:17;;;;;;;8.40;3.80;;;;;;;29.78;34.43;99091.90;78236;1301;3069041;-71
2023/07/18 09:05:44;;;;;;;3.90;3.00;;;;;;;29.80;33.26;99089.26;79585;1296;3013223;-70
2023/07/18 09:08:11;;;;;;;5.00;3.30;;;;;;;29.76;32.74;99093.42;79444;1295;3011730;-73
2023/07/18 09:10:39;;;;;;;7.00;3.60;;;;;;;29.77;32.62;99085.92;78369;1298;3053569;-73
2023/07/18 09:13:07;;;;;;;5.60;3.10;;;;;;;29.99;33.04;99081.08;79548;1298;3013233;-76
2023/07/18 09:15:35;;;;;;;10.30;3.30;;;;;;;30.06;32.21;99083.07;79595;1296;3011702;-72
2023/07/18 09:18:04;;;;;;;3.80;2.60;;;;;;;30.10;31.82;99080.13;78287;1298;3069798;-68
2023/07/18 09:20:32;;;;;;;4.90;3.20;;;;;;;29.99;31.81;99082.92;79606;1295;3011932;-72
2023/07/18 09:23:05;;;;;;;8.30;3.60;;;;;;;30.17;33.05;99074.40;78881;1298;3012941;-72
2023/07/18 09:25:38;;;;;;;5.80;3.20;;;;;;;30.35;33.01;99073.17;79674;1295;3013194;-75
2023/07/18 09:28:08;;;;;;;5.10;2.80;;;;;;;30.39;33.08;99081.52;78356;1296;3054395;-69
2023/07/18 09:30:36;;;;;;;5.30;2.70;;;;;;;30.39;32.99;99082.65;79581;1295;3013323;-69
2023/07/18 09:33:05;;;;;;;5.70;2.80;;;;;;;30.39;32.32;99073.08;78298;1301;3026345;-74
2023/07/18 09:35:41;;;;;;;6.90;2.90;;;;;;;30.47;32.28;99070.46;79761;1296;3012699;-69
2023/07/18 09:38:10;;;;;;;7.10;2.80;;;;;;;30.48;32.25;99067.24;78287;1299;3069930;-73
2023/07/18 09:40:37;;;;;;;5.20;2.80;;;;;;;30.58;31.98;99065.28;79595;1299;3018889;-68
2023/07/18 09:43:04;;;;;;;3.90;2.80;;;;;;;30.52;31.27;99068.21;79709;1296;3011453;-70
2023/07/18 09:45:33;;;;;;;3.70;2.80;;;;;;;30.63;31.76;99063.16;78353;1295;3053795;-69
2023/07/18 09:48:00;;;;;;;6.50;3.10;;;;;;;30.53;31.85;99066.07;79564;1298;3021281;-71
2023/07/18 09:50:27;;;;;;;5.30;3.00;;;;;;;30.53;32.68;99056.95;79504;1299;3011611;-67
2023/07/18 09:52:56;;;;;;;8.30;2.90;;;;;;;30.55;32.90;99048.21;78233;1295;3069607;-71
2023/07/18 09:55:26;;;;;;;8.00;3.30;;;;;;;30.68;32.68;99050.27;79634;1295;3011435;-75
2023/07/18 09:57:55;;;;;;;7.80;3.50;;;;;;;30.77;32.69;99041.70;78312;1298;3048944;-69
2023/07/18 10:00:23;;;;;;;5.20;2.80;;;;;;;30.87;32.90;99039.43;79557;1301;3020472;-65
2023/07/18 10:02:52;;;;;;;3.50;2.80;;;;;;;30.78;32.39;99037.55;79608;1295;3011418;-71
2023/07/18 10:05:20;;;;;;;7.20;2.80;;;;;;;30.92;32.80;99030.70;78603;1299;3053171;-73
2023/07/18 10:07:47;;;;;;;5.70;3.40;;;;;;;30.94;32.54;99027.87;79607;1300;3013963;-71
2023/07/18 10:10:13;;;;;;;5.90;3.10;;;;;;;30.98;33.02;99019.49;79466;1301;3012364;-69
2023/07/18 10:12:54;;;;;;;6.30;3.30;;;;;;;31.11;33.06;99021.54;78134;1301;3028108;-75
2023/07/18 10:15:22;;;;;;;8.00;3.40;;;;;;;31.25;32.73;99019.01;78228;1295;3053572;-69
2023/07/18 10:17:49;;;;;;;5.90;3.20;;;;;;;31.28;32.48;99012.56;79580;1301;3011744;-73
2023/07/18 10:20:22;;;;;;;9.90;3.40;;;;;;;31.27;32.65;99012.92;79588;1299;3011559;-73
2023/07/18 10:22:58;;;;;;;8.30;3.00;;;;;;;31.40;32.85;99015.19;78389;1301;3067559;-67
2023/07/18 10:25:26;;;;;;;7.90;3.70;;;;;;;31.60;32.52;99014.73;78338;1296;3051992;-68
2023/07/18 10:27:53;;;;;;;5.20;3.00;;;;;;;31.76;31.94;99006.08;79631;1301;3012890;-78
2023/07/18 10:30:20;;;;;;;5.50;3.40;;;;;;;31.75;31.75;99011.15;79441;1295;3011649;-78
2023/07/18 10:32:57;;;;;;;6.80;3.20;;;;;;;31.79;31.74;99002.31;78361;1300;3049054;-68
2023/07/18 10:35:26;;;;;;;8.80;3.60;;;;;;;31.82;32.04;99004.06;78332;1295;3051901;-72
2023/07/18 10:37:57;;;;;;;10.40;2.90;;;;;;;31.82;31.89;99005.63;79532;1301;3014025;-68
2023/07/18 10:40:43;;;;;;;6.80;3.20;;;;;;;31.73;32.14;99006.99;78389;1296;3050871;-71
2023/07/18 10:43:18;;;;;;;7.40;3.00;;;;;;;31.79;32.15;99003.23;78280;1300;3057191;-70
2023/07/18 10:45:47;;;;;;;7.30;3.40;;;;;;;31.85;32.12;99007.15;78916;1301;3011769;-75
2023/07/18 10:48:19;;;;;;;6.70;3.00;;;;;;;31.78;32.41;98999.80;79466;1295;3018920;-70
2023/07/18 10:50:48;;;;;;;9.50;3.30;;;;;;;31.84;32.40;98997.46;78226;1300;3050121;-69
2023/07/18 10:53:19;;;;;;;14.10;3.20;;;;;;;31.73;32.67;98995.05;79546;1300;3013815;-68
2023/07/18 10:55:47;;;;;;;5.30;3.40;;;;;;;31.82;32.96;98997.10;78224;1295;3068795;-66
2023/07/18 10:58:19;;;;;;;4.10;3.10;;;;;;;31.75;33.20;98991.88;79454;1300;3012883;-71
2023/07/18 11:00:48;;;;;;;6.30;3.00;;;;;;;31.89;33.51;98992.61;78409;1300;3050940;-73
2023/07/18 11:03:19;;;;;;;9.20;3.40;;;;;;;32.01;33.08;98986.30;79665;1301;3014852;-70
2023/07/18 11:05:48;;;;;;;8.90;3.50;;;;;;;32.08;33.33;98985.92;78383;1298;3051901;-72
2023/07/18 11:08:23;;;;;;;7.20;3.40;;;;;;;32.12;33.16;98980.45;79642;1301;3013285;-70
2023/07/18 11:11:03;;;;;;;9.80;3.60;;;;;;;31.98;32.93;98980.44;78486;1295;3068981;-72
2023/07/18 11:13:32;;;;;;;5.30;3.90;;;;;;;32.16;33.04;98971.23;78334;1296;3052488;-69
2023/07/18 11:16:07;;;;;;;7.00;3.80;;;;;;;32.47;32.73;98967.55;79702;1295;3014009;-74
2023/07/18 11:18:35;;;;;;;8.60;3.80;;;;;;;32.78;31.89;98967.62;78476;1295;3049396;-71
2023/07/18 11:21:06;;;;;;;9.80;3.50;;;;;;;32.99;31.70;98966.06;79607;1298;3013138;-69
2023/07/18 11:23:35;;;;;;;6.10;3.80;;;;;;;33.15;31.39;98965.60;78356;1299;3042911;-67
2023/07/18 11:26:12;;;;;;;5.80;3.60;;;;;;;32.95;31.54;98961.70;79639;1298;3012873;-68
2023/07/18 11:28:41;;;;;;;4.80;3.60;;;;;;;32.82;31.73;98956.48;78298;1301;3051970;-71
2023/07/18 11:31:28;;;;;;;6.70;3.20;;;;;;;32.79;31.86;98956.50;79768;1295;3015036;-72
2023/07/18 11:33:59;;;;;;;9.20;3.90;;;;;;;32.82;31.98;98951.68;78369;1295;3054624;-67
2023/07/18 11:36:31;;;;;;;10.30;3.70;;;;;;;32.78;32.24;98945.48;79734;1295;3013397;-71
2023/07/18 11:39:03;;;;;;;7.70;4.00;;;;;;;33.00;32.14;98952.09;78393;1301;3052088;-69
2023/07/18 11:41:35;;;;;;;7.30;3.90;;;;;;;33.08;32.19;98949.46;79605;1300;3013730;-72
2023/07/18 11:44:04;;;;;;;9.70;4.20;;;;;;;33.16;31.82;98944.17;78366;1299;3070150;-73
2023/07/18 11:46:38;;;;;;;6.70;3.80;;;;;;;33.08;31.98;98943.86;79700;1295;3011600;-70
2023/07/18 11:49:06;;;;;;;7.40;3.60;;;;;;;32.94;32.68;98941.29;78389;1300;3049766;-68
2023/07/18 11:51:33;;;;;;;5.20;3.80;;;;;;;32.89;32.39;98935.20;79604;1299;3013188;-69
2023/07/18 11:54:01;;;;;;;5.80;4.00;;;;;;;32.91;32.60;98937.02;79536;1295;3013164;-73
2023/07/18 11:56:30;;;;;;;6.60;3.80;;;;;;;32.74;32.96;98928.64;78341;1298;3052094;-68
2023/07/18 11:58:56;;;;;;;7.80;3.90;;;;;;;32.71;32.89;98929.70;79600;1300;3013121;-69
2023/07/18 12:01:23;;;;;;;7.70;4.00;;;;;;;32.64;32.61;98923.59;79525;1301;3011515;-72
2023/07/18 12:03:51;;;;;;;12.70;4.30;;;;;;;32.75;32.45;98918.64;78326;1295;3049338;-66
2023/07/18 12:06:21;;;;;;;18.30;4.00;;;;;;;32.78;32.49;98912.70;79562;1298;3014053;-71
2023/07/18 12:08:49;;;;;;;6.80;4.00;;;;;;;32.89;33.06;98914.70;78376;1300;3052417;-69
2023/07/18 12:11:17;;;;;;;6.50;3.80;;;;;;;33.07;32.87;98909.51;79603;1298;3013044;-67
2023/07/18 12:13:45;;;;;;;9.80;4.00;;;;;;;33.31;32.69;98906.27;79581;1299;3011669;-69
2023/07/18 12:16:13;;;;;;;10.60;4.50;;;;;;;33.37;32.19;98904.96;78265;1296;3057007;-68
2023/07/18 12:18:39;;;;;;;7.20;3.60;;;;;;;33.50;32.05;98903.02;79757;1295;3011664;-69
2023/07/18 12:21:06;;;;;;;6.00;3.70;;;;;;;33.73;31.70;98894.96;79485;1297;3011740;-69
2023/07/18 12:23:34;;;;;;;7.60;3.80;;;;;;;33.96;31.58;98893.70;80784;1294;3025832;-68
2023/07/18 12:26:01;;;;;;;6.00;3.80;;;;;;;34.16;31.28;98887.55;82053;1294;3012804;-70
2023/07/18 12:28:28;;;;;;;9.30;3.70;;;;;;;34.09;31.38;98883.15;82025;1294;3011036;-69
2023/07/18 12:30:55;;;;;;;6.00;3.90;;;;;;;34.12;31.07;98883.05;80764;1295;3025117;-68
2023/07/18 12:33:23;;;;;;;5.40;3.80;;;;;;;34.29;30.88;98877.56;82022;1295;3013088;-66
2023/07/18 12:35:50;;;;;;;13.30;4.00;;;;;;;34.31;30.84;98874.96;81932;1295;3011458;-68
2023/07/18 12:38:18;;;;;;;8.70;4.00;;;;;;;34.21;31.39;98872.17;80771;1295;3051955;-70
2023/07/18 12:40:44;;;;;;;7.30;4.10;;;;;;;33.89;31.61;98866.72;82099;1295;3012947;-70
2023/07/18 12:43:11;;;;;;;8.10;3.80;;;;;;;33.75;31.95;98867.73;82011;1295;3011256;-66
2023/07/18 12:45:38;;;;;;;7.70;4.10;;;;;;;33.59;32.26;98863.51;80743;1294;3026400;-69
2023/07/18 12:48:05;;;;;;;7.10;3.90;;;;;;;33.39;32.19;98864.42;82015;1298;3018370;-65
2023/07/18 12:50:32;;;;;;;9.70;4.20;;;;;;;33.35;32.61;98863.45;82010;1295;3011400;-66
2023/07/18 12:53:01;;;;;;;7.60;4.30;;;;;;;33.33;32.99;98857.90;80626;1301;3026261;-67
2023/07/18 12:55:27;;;;;;;10.10;4.10;;;;;;;33.26;33.20;98854.42;82061;1294;3011061;-67
2023/07/18 12:57:54;;;;;;;7.80;4.00;;;;;;;33.37;33.32;98848.08;82002;1295;3012824;-69
2023/07/18 13:00:22;;;;;;;10.10;4.30;;;;;;;33.38;32.80;98840.40;80752;1294;3056573;-66
2023/07/18 13:02:48;;;;;;;7.60;4.20;;;;;;;33.33;32.97;98841.81;82015;1295;3013014;-67
2023/07/18 13:05:16;;;;;;;9.50;4.30;;;;;;;33.76;32.50;98833.91;81994;1295;3011543;-71
2023/07/18 13:07:44;;;;;;;10.50;4.20;;;;;;;34.09;32.38;98829.79;80753;1294;3042657;-69
2023/07/18 13:10:10;;;;;;;6.30;4.40;;;;;;;34.44;32.25;98823.19;82043;1295;3012698;-65
2023/07/18 13:12:37;;;;;;;7.40;5.00;;;;;;;34.41;31.97;98816.70;81991;1294;3012666;-67
2023/07/18 13:15:07;;;;;;;4.80;3.70;;;;;;;34.19;32.00;98817.16;80735;1295;3057090;-69
2023/07/18 13:17:33;;;;;;;8.20;4.00;;;;;;;33.90;32.01;98811.26;82064;1294;3012565;-67
2023/07/18 13:20:00;;;;;;;6.60;4.00;;;;;;;33.86;32.26;98807.16;81997;1299;3011291;-65
2023/07/18 13:22:28;;;;;;;7.10;4.10;;;;;;;33.74;32.91;98807.98;80796;1294;3042405;-66
2023/07/18 13:24:54;;;;;;;6.80;4.10;;;;;;;33.51;32.82;98810.30;82056;1295;3013098;-69
2023/07/18 13:27:22;;;;;;;7.70;4.00;;;;;;;33.47;32.99;98804.33;82001;1295;3011234;-70
2023/07/18 13:29:50;;;;;;;6.60;4.00;;;;;;;33.27;33.32;98809.93;80768;1294;3055796;-67
2023/07/18 13:32:17;;;;;;;11.20;3.90;;;;;;;33.23;33.87;98808.36;82025;1294;3013686;-65
2023/07/18 13:34:43;;;;;;;7.70;4.00;;;;;;;32.94;34.37;98803.70;82007;1294;3011299;-65
2023/07/18 13:37:11;;;;;;;13.40;4.30;;;;;;;32.87;34.35;98796.95;80726;1294;3051244;-67